sensor_id;sensor_type;location;lat;lon;timestamp;pressure;altitude;pressure_sealevel;temperature;humidity
4398;BME280;2213;49.720;7.296;2023-05-09T00:00:06;98375.25;;;16.00;100.00
4398;BME280;2213;49.720;7.296;2023-05-09T00:02:37;98376.84;;;16.01;100.00
4398;BME280;2213;49.720;7.296;2023-05-09T00:05:09;98377.28;;;15.98;100.00
4398;BME280;2213;49.720;7.296;2023-05-09T00:07:38;98379.34;;;15.96;100.00
4398;BME280;2213;49.720;7.296;2023-05-09T00:10:08;98378.28;;;15.97;100.00
4398;BME280;2213;49.720;7.296;2023-05-09T00:12:36;98368.56;;;15.97;100.00
4398;BME280;2213;49.720;7.296;2023-05-09T00:15:06;98369.16;;;15.99;100.00
4398;BME280;2213;49.720;7.296;2023-05-09T00:17:35;98369.97;;;16.00;100.00
4398;BME280;2213;49.720;7.296;2023-05-09T00:20:08;98366.91;;;16.03;100.00
4398;BME280;2213;49.720;7.296;2023-05-09T00:22:39;98359.00;;;16.03;100.00
4398;BME280;2213;49.720;7.296;2023-05-09T00:25:09;98366.47;;;16.06;100.00
4398;BME280;2213;49.720;7.296;2023-05-09T00:27:39;98359.56;;;16.05;100.00
4398;BME280;2213;49.720;7.296;2023-05-09T00:30:09;98350.03;;;16.04;100.00
4398;BME280;2213;49.720;7.296;2023-05-09T00:32:37;98352.47;;;16.05;100.00
4398;BME280;2213;49.720;7.296;2023-05-09T00:35:09;98352.47;;;16.05;100.00
4398;BME280;2213;49.720;7.296;2023-05-09T00:37:38;98353.28;;;16.06;100.00
4398;BME280;2213;49.720;7.296;2023-05-09T00:40:09;98356.94;;;16.05;100.00
4398;BME280;2213;49.720;7.296;2023-05-09T00:42:38;98347.41;;;16.04;100.00
4398;BME280;2213;49.720;7.296;2023-05-09T00:45:08;98347.84;;;16.01;100.00
4398;BME280;2213;49.720;7.296;2023-05-09T00:47:37;98341.97;;;15.99;100.00
4398;BME280;2213;49.720;7.296;2023-05-09T00:50:09;98339.91;;;16.01;100.00
4398;BME280;2213;49.720;7.296;2023-05-09T00:52:38;98343.16;;;16.03;100.00
4398;BME280;2213;49.720;7.296;2023-05-09T00:55:07;98335.03;;;16.04;100.00
4398;BME280;2213;49.720;7.296;2023-05-09T00:57:36;98342.94;;;16.04;100.00
4398;BME280;2213;49.720;7.296;2023-05-09T01:00:06;98335.84;;;16.05;100.00
4398;BME280;2213;49.720;7.296;2023-05-09T01:02:40;98327.09;;;16.04;100.00
4398;BME280;2213;49.720;7.296;2023-05-09T01:05:11;98318.38;;;16.04;100.00
4398;BME280;2213;49.720;7.296;2023-05-09T01:07:47;98323.88;;;16.02;100.00
4398;BME280;2213;49.720;7.296;2023-05-09T01:10:28;98329.97;;;16.03;100.00
4398;BME280;2213;49.720;7.296;2023-05-09T01:13:05;98340.28;;;16.04;100.00
4398;BME280;2213;49.720;7.296;2023-05-09T01:15:45;98327.91;;;16.05;100.00
4398;BME280;2213;49.720;7.296;2023-05-09T01:18:30;98324.47;;;16.04;100.00
4398;BME280;2213;49.720;7.296;2023-05-09T01:21:06;98317.78;;;16.02;100.00
4398;BME280;2213;49.720;7.296;2023-05-09T01:23:58;98314.59;;;16.00;100.00
4398;BME280;2213;49.720;7.296;2023-05-09T01:26:43;98311.13;;;15.99;100.00
4398;BME280;2213;49.720;7.296;2023-05-09T01:29:35;98315.59;;;15.99;100.00
4398;BME280;2213;49.720;7.296;2023-05-09T01:32:09;98322.50;;;16.00;100.00
4398;BME280;2213;49.720;7.296;2023-05-09T01:34:44;98316.59;;;15.98;100.00
4398;BME280;2213;49.720;7.296;2023-05-09T01:37:15;98309.72;;;15.97;100.00
4398;BME280;2213;49.720;7.296;2023-05-09T01:39:52;98302.59;;;15.97;100.00
4398;BME280;2213;49.720;7.296;2023-05-09T01:42:21;98302.84;;;15.96;100.00
4398;BME280;2213;49.720;7.296;2023-05-09T01:44:53;98295.75;;;15.96;100.00
4398;BME280;2213;49.720;7.296;2023-05-09T01:47:25;98294.91;;;15.96;100.00
4398;BME280;2213;49.720;7.296;2023-05-09T01:49:55;98296.53;;;15.97;100.00
4398;BME280;2213;49.720;7.296;2023-05-09T01:52:25;98291.25;;;15.97;100.00
4398;BME280;2213;49.720;7.296;2023-05-09T01:54:54;98294.50;;;15.99;100.00
4398;BME280;2213;49.720;7.296;2023-05-09T01:57:24;98283.94;;;15.99;100.00
4398;BME280;2213;49.720;7.296;2023-05-09T01:59:57;98284.94;;;15.98;100.00
4398;BME280;2213;49.720;7.296;2023-05-09T02:02:27;98283.31;;;15.97;100.00
4398;BME280;2213;49.720;7.296;2023-05-09T02:04:57;98280.69;;;15.97;100.00
4398;BME280;2213;49.720;7.296;2023-05-09T02:07:29;98283.31;;;15.97;100.00
4398;BME280;2213;49.720;7.296;2023-05-09T02:09:59;98282.53;;;15.96;100.00
4398;BME280;2213;49.720;7.296;2023-05-09T02:12:29;98280.69;;;15.97;100.00
4398;BME280;2213;49.720;7.296;2023-05-09T02:14:59;98279.09;;;15.96;100.00
4398;BME280;2213;49.720;7.296;2023-05-09T02:17:28;98273.81;;;15.96;100.00
4398;BME280;2213;49.720;7.296;2023-05-09T02:19:57;98272.78;;;15.97;100.00
4398;BME280;2213;49.720;7.296;2023-05-09T02:22:27;98274.84;;;15.95;100.00
4398;BME280;2213;49.720;7.296;2023-05-09T02:24:56;98281.13;;;15.94;100.00
4398;BME280;2213;49.720;7.296;2023-05-09T02:27:25;98275.84;;;15.94;100.00
4398;BME280;2213;49.720;7.296;2023-05-09T02:29:55;98277.91;;;15.92;100.00
4398;BME280;2213;49.720;7.296;2023-05-09T02:32:33;98276.28;;;15.91;100.00
4398;BME280;2213;49.720;7.296;2023-05-09T02:35:03;98291.09;;;15.92;100.00
4398;BME280;2213;49.720;7.296;2023-05-09T02:37:35;98279.16;;;15.89;100.00
4398;BME280;2213;49.720;7.296;2023-05-09T02:40:08;98266.75;;;15.90;100.00
4398;BME280;2213;49.720;7.296;2023-05-09T02:42:37;98266.75;;;15.90;100.00
4398;BME280;2213;49.720;7.296;2023-05-09T02:45:08;98269.38;;;15.90;100.00
4398;BME280;2213;49.720;7.296;2023-05-09T02:47:40;98265.72;;;15.91;100.00
4398;BME280;2213;49.720;7.296;2023-05-09T02:50:09;98262.50;;;15.89;100.00
4398;BME280;2213;49.720;7.296;2023-05-09T02:52:38;98264.09;;;15.90;100.00
4398;BME280;2213;49.720;7.296;2023-05-09T02:55:08;98261.47;;;15.90;100.00
4398;BME280;2213;49.720;7.296;2023-05-09T02:57:36;98260.47;;;15.91;100.00
4398;BME280;2213;49.720;7.296;2023-05-09T03:00:07;98256.19;;;15.90;100.00
4398;BME280;2213;49.720;7.296;2023-05-09T03:02:36;98255.63;;;15.88;100.00
4398;BME280;2213;49.720;7.296;2023-05-09T03:05:08;98261.69;;;15.88;100.00
4398;BME280;2213;49.720;7.296;2023-05-09T03:07:37;98259.06;;;15.88;100.00
4398;BME280;2213;49.720;7.296;2023-05-09T03:10:07;98266.97;;;15.88;100.00
4398;BME280;2213;49.720;7.296;2023-05-09T03:12:37;98264.34;;;15.88;100.00
4398;BME280;2213;49.720;7.296;2023-05-09T03:15:07;98263.31;;;15.89;100.00
4398;BME280;2213;49.720;7.296;2023-05-09T03:17:36;98263.53;;;15.88;100.00
4398;BME280;2213;49.720;7.296;2023-05-09T03:20:07;98259.06;;;15.88;100.00
4398;BME280;2213;49.720;7.296;2023-05-09T03:22:37;98255.63;;;15.88;100.00
4398;BME280;2213;49.720;7.296;2023-05-09T03:25:06;98245.88;;;15.88;100.00
4398;BME280;2213;49.720;7.296;2023-05-09T03:27:35;98246.09;;;15.87;100.00
4398;BME280;2213;49.720;7.296;2023-05-09T03:30:06;98248.72;;;15.87;100.00
4398;BME280;2213;49.720;7.296;2023-05-09T03:32:35;98247.31;;;15.84;100.00
4398;BME280;2213;49.720;7.296;2023-05-09T03:35:06;98250.78;;;15.85;100.00
4398;BME280;2213;49.720;7.296;2023-05-09T03:37:37;98238.59;;;15.84;100.00
4398;BME280;2213;49.720;7.296;2023-05-09T03:40:07;98238.59;;;15.84;100.00
4398;BME280;2213;49.720;7.296;2023-05-09T03:42:36;98246.50;;;15.84;100.00
4398;BME280;2213;49.720;7.296;2023-05-09T03:45:06;98245.72;;;15.83;100.00
4398;BME280;2213;49.720;7.296;2023-05-09T03:47:35;98253.63;;;15.83;100.00
4398;BME280;2213;49.720;7.296;2023-05-09T03:50:07;98239.03;;;15.81;100.00
4398;BME280;2213;49.720;7.296;2023-05-09T03:52:36;98247.97;;;15.80;100.00
4398;BME280;2213;49.720;7.296;2023-05-09T03:55:06;98243.72;;;15.79;100.00
4398;BME280;2213;49.720;7.296;2023-05-09T03:57:35;98239.25;;;15.79;100.00
4398;BME280;2213;49.720;7.296;2023-05-09T04:00:06;98237.84;;;15.77;100.00
4398;BME280;2213;49.720;7.296;2023-05-09T04:02:37;98248.41;;;15.77;100.00
4398;BME280;2213;49.720;7.296;2023-05-09T04:05:07;98237.84;;;15.77;100.00
4398;BME280;2213;49.720;7.296;2023-05-09T04:07:36;98234.63;;;15.75;100.00
4398;BME280;2213;49.720;7.296;2023-05-09T04:10:07;98231.19;;;15.74;100.00
4398;BME280;2213;49.720;7.296;2023-05-09T04:12:36;98229.34;;;15.75;100.00
4398;BME280;2213;49.720;7.296;2023-05-09T04:15:08;98224.09;;;15.75;100.00
4398;BME280;2213;49.720;7.296;2023-05-09T04:17:37;98222.25;;;15.75;100.00
4398;BME280;2213;49.720;7.296;2023-05-09T04:20:09;98209.28;;;15.74;100.00
4398;BME280;2213;49.720;7.296;2023-05-09T04:22:39;98219.81;;;15.74;100.00
4398;BME280;2213;49.720;7.296;2023-05-09T04:25:07;98220.47;;;15.69;100.00
4398;BME280;2213;49.720;7.296;2023-05-09T04:27:38;98220.69;;;15.68;100.00
4398;BME280;2213;49.720;7.296;2023-05-09T04:30:08;98213.78;;;15.67;100.00
4398;BME280;2213;49.720;7.296;2023-05-09T04:32:37;98204.88;;;15.68;100.00
4398;BME280;2213;49.720;7.296;2023-05-09T04:35:09;98206.91;;;15.66;100.00
4398;BME280;2213;49.720;7.296;2023-05-09T04:37:38;98199.00;;;15.66;100.00
4398;BME280;2213;49.720;7.296;2023-05-09T04:40:08;98207.94;;;15.65;100.00
4398;BME280;2213;49.720;7.296;2023-05-09T04:42:39;98213.22;;;15.65;100.00
4398;BME280;2213;49.720;7.296;2023-05-09T04:45:09;98209.97;;;15.63;100.00
4398;BME280;2213;49.720;7.296;2023-05-09T04:47:39;98212.59;;;15.63;100.00
4398;BME280;2213;49.720;7.296;2023-05-09T04:50:11;98206.75;;;15.60;100.00
4398;BME280;2213;49.720;7.296;2023-05-09T04:52:40;98203.88;;;15.62;100.00
4398;BME280;2213;49.720;7.296;2023-05-09T04:55:09;98198.22;;;15.65;100.00
4398;BME280;2213;49.720;7.296;2023-05-09T04:57:38;98199.38;;;15.69;100.00
4398;BME280;2213;49.720;7.296;2023-05-09T05:00:08;98196.31;;;15.72;100.00
4398;BME280;2213;49.720;7.296;2023-05-09T05:02:38;98199.75;;;15.73;100.00
4398;BME280;2213;49.720;7.296;2023-05-09T05:05:09;98203.56;;;15.77;100.00
4398;BME280;2213;49.720;7.296;2023-05-09T05:07:38;98202.75;;;15.76;100.00
4398;BME280;2213;49.720;7.296;2023-05-09T05:10:08;98201.75;;;15.77;100.00
4398;BME280;2213;49.720;7.296;2023-05-09T05:12:37;98203.38;;;15.78;100.00
4398;BME280;2213;49.720;7.296;2023-05-09T05:15:10;98206.81;;;15.79;100.00
4398;BME280;2213;49.720;7.296;2023-05-09T05:17:39;98207.41;;;15.81;100.00
4398;BME280;2213;49.720;7.296;2023-05-09T05:20:10;98196.84;;;15.81;100.00
4398;BME280;2213;49.720;7.296;2023-05-09T05:22:39;98193.19;;;15.82;100.00
4398;BME280;2213;49.720;7.296;2023-05-09T05:25:08;98195.59;;;15.83;100.00
4398;BME280;2213;49.720;7.296;2023-05-09T05:27:37;98203.31;;;15.85;100.00
4398;BME280;2213;49.720;7.296;2023-05-09T05:30:07;98198.84;;;15.85;100.00
4398;BME280;2213;49.720;7.296;2023-05-09T05:32:36;98190.94;;;15.85;100.00
4398;BME280;2213;49.720;7.296;2023-05-09T05:35:06;98183.59;;;15.87;100.00
4398;BME280;2213;49.720;7.296;2023-05-09T05:37:38;98186.22;;;15.87;100.00
4398;BME280;2213;49.720;7.296;2023-05-09T05:40:07;98176.50;;;15.88;100.00
4398;BME280;2213;49.720;7.296;2023-05-09T05:42:37;98181.34;;;15.91;100.00
4398;BME280;2213;49.720;7.296;2023-05-09T05:45:08;98173.22;;;15.92;100.00
4398;BME280;2213;49.720;7.296;2023-05-09T05:47:36;98165.06;;;15.94;100.00
4398;BME280;2213;49.720;7.296;2023-05-09T05:50:07;98166.69;;;15.95;100.00
4398;BME280;2213;49.720;7.296;2023-05-09T05:52:39;98158.34;;;15.98;100.00
4398;BME280;2213;49.720;7.296;2023-05-09T05:55:08;98167.22;;;16.03;100.00
4398;BME280;2213;49.720;7.296;2023-05-09T05:57:37;98166.78;;;16.06;100.00
4398;BME280;2213;49.720;7.296;2023-05-09T06:00:07;98158.63;;;16.08;100.00
4398;BME280;2213;49.720;7.296;2023-05-09T06:02:37;98168.16;;;16.09;100.00
4398;BME280;2213;49.720;7.296;2023-05-09T06:05:07;98162.28;;;16.07;100.00
4398;BME280;2213;49.720;7.296;2023-05-09T06:07:38;98156.59;;;16.10;100.00
4398;BME280;2213;49.720;7.296;2023-05-09T06:10:07;98159.25;;;16.10;100.00
4398;BME280;2213;49.720;7.296;2023-05-09T06:12:37;98150.28;;;16.11;100.00
4398;BME280;2213;49.720;7.296;2023-05-09T06:15:07;98153.53;;;16.13;100.00
4398;BME280;2213;49.720;7.296;2023-05-09T06:17:35;98141.72;;;16.16;100.00
4398;BME280;2213;49.720;7.296;2023-05-09T06:20:06;98139.66;;;16.18;100.00
4398;BME280;2213;49.720;7.296;2023-05-09T06:22:34;98141.44;;;16.24;100.00
4398;BME280;2213;49.720;7.296;2023-05-09T06:25:06;98139.53;;;16.31;100.00
4398;BME280;2213;49.720;7.296;2023-05-09T06:27:36;98144.13;;;16.35;100.00
4398;BME280;2213;49.720;7.296;2023-05-09T06:30:07;98145.91;;;16.41;100.00
4398;BME280;2213;49.720;7.296;2023-05-09T06:32:51;98147.94;;;16.39;100.00
4398;BME280;2213;49.720;7.296;2023-05-09T06:35:19;98139.13;;;16.45;100.00
4398;BME280;2213;49.720;7.296;2023-05-09T06:37:48;98129.16;;;16.47;100.00
4398;BME280;2213;49.720;7.296;2023-05-09T06:40:19;98122.25;;;16.46;100.00
4398;BME280;2213;49.720;7.296;2023-05-09T06:42:47;98114.69;;;16.50;100.00
4398;BME280;2213;49.720;7.296;2023-05-09T06:45:16;98116.97;;;16.46;100.00
4398;BME280;2213;49.720;7.296;2023-05-09T06:47:46;98112.72;;;16.45;100.00
4398;BME280;2213;49.720;7.296;2023-05-09T06:50:14;98117.78;;;16.47;100.00
4398;BME280;2213;49.720;7.296;2023-05-09T06:52:43;98126.72;;;16.46;100.00
4398;BME280;2213;49.720;7.296;2023-05-09T06:55:11;98108.84;;;16.48;100.00
4398;BME280;2213;49.720;7.296;2023-05-09T06:57:42;98118.97;;;16.51;100.00
4398;BME280;2213;49.720;7.296;2023-05-09T07:00:13;98109.56;;;16.55;100.00
4398;BME280;2213;49.720;7.296;2023-05-09T07:02:44;98107.31;;;16.58;100.00
4398;BME280;2213;49.720;7.296;2023-05-09T07:05:13;98097.91;;;16.63;100.00
4398;BME280;2213;49.720;7.296;2023-05-09T07:07:43;98094.47;;;16.62;100.00
4398;BME280;2213;49.720;7.296;2023-05-09T07:10:12;98088.25;;;16.56;100.00
4398;BME280;2213;49.720;7.296;2023-05-09T07:12:42;98090.78;;;16.63;100.00
4398;BME280;2213;49.720;7.296;2023-05-09T07:15:11;98088.38;;;16.62;100.00
4398;BME280;2213;49.720;7.296;2023-05-09T07:17:51;98083.22;;;16.67;100.00
4398;BME280;2213;49.720;7.296;2023-05-09T07:20:20;98091.84;;;16.74;100.00
4398;BME280;2213;49.720;7.296;2023-05-09T07:22:48;98076.63;;;16.76;100.00
4398;BME280;2213;49.720;7.296;2023-05-09T07:25:17;98075.13;;;16.80;100.00
4398;BME280;2213;49.720;7.296;2023-05-09T07:27:47;98072.16;;;16.88;100.00
4398;BME280;2213;49.720;7.296;2023-05-09T07:30:16;98072.84;;;16.95;100.00
4398;BME280;2213;49.720;7.296;2023-05-09T07:32:44;98056.78;;;16.96;100.00
4398;BME280;2213;49.720;7.296;2023-05-09T07:35:13;98067.47;;;17.01;100.00
4398;BME280;2213;49.720;7.296;2023-05-09T07:37:42;98065.06;;;17.00;100.00
4398;BME280;2213;49.720;7.296;2023-05-09T07:40:12;98057.69;;;17.02;100.00
4398;BME280;2213;49.720;7.296;2023-05-09T07:42:41;98056.00;;;17.07;100.00
4398;BME280;2213;49.720;7.296;2023-05-09T07:45:18;98061.72;;;17.04;100.00
4398;BME280;2213;49.720;7.296;2023-05-09T07:47:50;98056.00;;;17.07;100.00
4398;BME280;2213;49.720;7.296;2023-05-09T07:50:18;98058.06;;;17.17;100.00
4398;BME280;2213;49.720;7.296;2023-05-09T07:52:47;98040.84;;;17.26;100.00
4398;BME280;2213;49.720;7.296;2023-05-09T07:55:16;98052.09;;;17.33;100.00
4398;BME280;2213;49.720;7.296;2023-05-09T07:57:45;98040.03;;;17.37;100.00
4398;BME280;2213;49.720;7.296;2023-05-09T08:00:15;98041.75;;;17.43;100.00
4398;BME280;2213;49.720;7.296;2023-05-09T08:02:45;98038.31;;;17.43;100.00
4398;BME280;2213;49.720;7.296;2023-05-09T08:05:14;98027.59;;;17.49;100.00
4398;BME280;2213;49.720;7.296;2023-05-09T08:07:43;98030.38;;;17.54;100.00
4398;BME280;2213;49.720;7.296;2023-05-09T08:10:12;98026.69;;;17.55;100.00
4398;BME280;2213;49.720;7.296;2023-05-09T08:12:40;98024.41;;;17.47;100.00
4398;BME280;2213;49.720;7.296;2023-05-09T08:15:10;98022.09;;;17.51;100.00
4398;BME280;2213;49.720;7.296;2023-05-09T08:17:40;98021.41;;;17.55;100.00
4398;BME280;2213;49.720;7.296;2023-05-09T08:20:12;98009.03;;;17.56;100.00
4398;BME280;2213;49.720;7.296;2023-05-09T08:22:40;98008.91;;;17.63;100.00
4398;BME280;2213;49.720;7.296;2023-05-09T08:25:10;98004.97;;;17.65;100.00
4398;BME280;2213;49.720;7.296;2023-05-09T08:27:40;98001.66;;;17.70;100.00
4398;BME280;2213;49.720;7.296;2023-05-09T08:30:11;97998.41;;;17.68;100.00
4398;BME280;2213;49.720;7.296;2023-05-09T08:32:40;98000.13;;;17.74;100.00
4398;BME280;2213;49.720;7.296;2023-05-09T08:35:12;97995.50;;;17.81;100.00
4398;BME280;2213;49.720;7.296;2023-05-09T08:37:41;97993.78;;;17.86;100.00
4398;BME280;2213;49.720;7.296;2023-05-09T08:40:10;97995.25;;;17.94;100.00
4398;BME280;2213;49.720;7.296;2023-05-09T08:42:43;97999.34;;;18.01;100.00
4398;BME280;2213;49.720;7.296;2023-05-09T08:45:13;97993.59;;;18.04;100.00
4398;BME280;2213;49.720;7.296;2023-05-09T08:47:44;97993.34;;;18.06;100.00
4398;BME280;2213;49.720;7.296;2023-05-09T08:50:15;97989.19;;;18.10;100.00
4398;BME280;2213;49.720;7.296;2023-05-09T08:52:47;97980.78;;;18.13;100.00
4398;BME280;2213;49.720;7.296;2023-05-09T08:55:16;97984.34;;;18.19;100.00
4398;BME280;2213;49.720;7.296;2023-05-09T08:57:46;97967.84;;;18.28;100.00
4398;BME280;2213;49.720;7.296;2023-05-09T09:00:15;97973.53;;;18.37;100.00
4398;BME280;2213;49.720;7.296;2023-05-09T09:02:48;97976.59;;;18.45;100.00
4398;BME280;2213;49.720;7.296;2023-05-09T09:05:22;97975.56;;;18.46;100.00
4398;BME280;2213;49.720;7.296;2023-05-09T09:08:07;97961.75;;;18.44;100.00
4398;BME280;2213;49.720;7.296;2023-05-09T09:10:40;97961.28;;;18.47;100.00
4398;BME280;2213;49.720;7.296;2023-05-09T09:13:14;97950.13;;;18.45;100.00
4398;BME280;2213;49.720;7.296;2023-05-09T09:15:45;97948.84;;;18.48;100.00
4398;BME280;2213;49.720;7.296;2023-05-09T09:18:21;97945.38;;;18.47;100.00
4398;BME280;2213;49.720;7.296;2023-05-09T09:20:58;97944.84;;;18.45;100.00
4398;BME280;2213;49.720;7.296;2023-05-09T09:23:32;97948.16;;;18.52;100.00
4398;BME280;2213;49.720;7.296;2023-05-09T09:26:02;97938.91;;;18.55;100.00
4398;BME280;2213;49.720;7.296;2023-05-09T09:28:32;97929.84;;;18.51;100.00
4398;BME280;2213;49.720;7.296;2023-05-09T09:31:01;97934.03;;;18.64;100.00
4398;BME280;2213;49.720;7.296;2023-05-09T09:33:29;97927.28;;;18.73;100.00
4398;BME280;2213;49.720;7.296;2023-05-09T09:36:01;97923.13;;;18.77;100.00
4398;BME280;2213;49.720;7.296;2023-05-09T09:38:39;97911.22;;;18.63;100.00
4398;BME280;2213;49.720;7.296;2023-05-09T09:41:12;97915.72;;;18.62;100.00
4398;BME280;2213;49.720;7.296;2023-05-09T09:43:44;97917.66;;;18.67;100.00
4398;BME280;2213;49.720;7.296;2023-05-09T09:46:14;97907.13;;;18.72;100.00
4398;BME280;2213;49.720;7.296;2023-05-09T09:48:45;97902.31;;;18.69;100.00
4398;BME280;2213;49.720;7.296;2023-05-09T09:51:20;97902.47;;;18.79;100.00
4398;BME280;2213;49.720;7.296;2023-05-09T09:53:50;97895.94;;;18.86;100.00
4398;BME280;2213;49.720;7.296;2023-05-09T09:56:19;97892.16;;;18.99;100.00
4398;BME280;2213;49.720;7.296;2023-05-09T09:58:48;97885.13;;;19.09;100.00
4398;BME280;2213;49.720;7.296;2023-05-09T10:01:17;97884.50;;;19.19;100.00
4398;BME280;2213;49.720;7.296;2023-05-09T10:03:47;97878.69;;;19.22;100.00
4398;BME280;2213;49.720;7.296;2023-05-09T10:06:16;97871.84;;;19.26;100.00
4398;BME280;2213;49.720;7.296;2023-05-09T10:08:47;97868.75;;;19.34;100.00
4398;BME280;2213;49.720;7.296;2023-05-09T10:11:17;97860.41;;;19.42;100.00
4398;BME280;2213;49.720;7.296;2023-05-09T10:13:46;97853.84;;;19.50;100.00
4398;BME280;2213;49.720;7.296;2023-05-09T10:16:15;97852.31;;;19.54;100.00
4398;BME280;2213;49.720;7.296;2023-05-09T10:18:54;97846.25;;;19.58;100.00
4398;BME280;2213;49.720;7.296;2023-05-09T10:21:23;97842.00;;;19.57;100.00
4398;BME280;2213;49.720;7.296;2023-05-09T10:23:54;97845.75;;;19.62;100.00
4398;BME280;2213;49.720;7.296;2023-05-09T10:26:25;97841.84;;;19.69;100.00
4398;BME280;2213;49.720;7.296;2023-05-09T10:29:06;97840.41;;;19.56;100.00
4398;BME280;2213;49.720;7.296;2023-05-09T10:31:39;97836.09;;;19.50;100.00
4398;BME280;2213;49.720;7.296;2023-05-09T10:34:11;97824.72;;;19.55;100.00
4398;BME280;2213;49.720;7.296;2023-05-09T10:36:40;97824.00;;;19.65;100.00
4398;BME280;2213;49.720;7.296;2023-05-09T10:39:12;97822.72;;;19.67;100.00
4398;BME280;2213;49.720;7.296;2023-05-09T10:41:41;97820.88;;;19.68;100.00
4398;BME280;2213;49.720;7.296;2023-05-09T10:44:10;97812.91;;;19.68;100.00
4398;BME280;2213;49.720;7.296;2023-05-09T10:46:39;97810.31;;;19.73;100.00
4398;BME280;2213;49.720;7.296;2023-05-09T10:49:09;97809.78;;;19.76;100.00
4398;BME280;2213;49.720;7.296;2023-05-09T10:51:38;97799.78;;;19.83;100.00
4398;BME280;2213;49.720;7.296;2023-05-09T10:54:25;97804.53;;;19.81;100.00
4398;BME280;2213;49.720;7.296;2023-05-09T10:56:56;97797.09;;;19.78;100.00
4398;BME280;2213;49.720;7.296;2023-05-09T10:59:35;97791.19;;;19.71;100.00
4398;BME280;2213;49.720;7.296;2023-05-09T11:02:05;97786.72;;;19.76;100.00
4398;BME280;2213;49.720;7.296;2023-05-09T11:04:39;97778.53;;;19.83;100.00
4398;BME280;2213;49.720;7.296;2023-05-09T11:07:22;97775.44;;;19.91;100.00
4398;BME280;2213;49.720;7.296;2023-05-09T11:10:07;97768.09;;;20.03;100.00
4398;BME280;2213;49.720;7.296;2023-05-09T11:12:53;97759.66;;;20.11;100.00
4398;BME280;2213;49.720;7.296;2023-05-09T11:15:24;97757.56;;;20.13;100.00
4398;BME280;2213;49.720;7.296;2023-05-09T11:18:06;97747.72;;;20.14;100.00
4398;BME280;2213;49.720;7.296;2023-05-09T11:20:35;97754.84;;;20.08;100.00
4398;BME280;2213;49.720;7.296;2023-05-09T11:23:10;97751.44;;;20.13;100.00
4398;BME280;2213;49.720;7.296;2023-05-09T11:25:41;97749.84;;;20.17;100.00
4398;BME280;2213;49.720;7.296;2023-05-09T11:28:24;97741.19;;;20.26;100.00
4398;BME280;2213;49.720;7.296;2023-05-09T11:31:09;97734.34;;;20.30;99.89
4398;BME280;2213;49.720;7.296;2023-05-09T11:33:39;97724.53;;;20.36;100.00
4398;BME280;2213;49.720;7.296;2023-05-09T11:36:19;97730.09;;;20.34;100.00
4398;BME280;2213;49.720;7.296;2023-05-09T11:39:04;97712.84;;;20.37;100.00
4398;BME280;2213;49.720;7.296;2023-05-09T11:41:41;97710.22;;;20.42;100.00
4398;BME280;2213;49.720;7.296;2023-05-09T11:44:17;97708.34;;;20.42;100.00
4398;BME280;2213;49.720;7.296;2023-05-09T11:46:48;97704.66;;;20.43;99.20
4398;BME280;2213;49.720;7.296;2023-05-09T11:49:17;97699.09;;;20.50;100.00
4398;BME280;2213;49.720;7.296;2023-05-09T11:51:47;97699.91;;;20.50;100.00
4398;BME280;2213;49.720;7.296;2023-05-09T11:54:16;97701.75;;;20.55;100.00
4398;BME280;2213;49.720;7.296;2023-05-09T11:56:46;97694.63;;;20.61;100.00
4398;BME280;2213;49.720;7.296;2023-05-09T11:59:16;97683.47;;;20.64;99.74
4398;BME280;2213;49.720;7.296;2023-05-09T12:01:45;97686.66;;;20.66;99.83
4398;BME280;2213;49.720;7.296;2023-05-09T12:04:14;97684.56;;;20.68;98.79
4398;BME280;2213;49.720;7.296;2023-05-09T12:06:46;97679.28;;;20.78;99.53
4398;BME280;2213;49.720;7.296;2023-05-09T12:09:15;97669.44;;;20.78;99.36
4398;BME280;2213;49.720;7.296;2023-05-09T12:11:51;97660.91;;;20.71;97.07
4398;BME280;2213;49.720;7.296;2023-05-09T12:14:27;97658.56;;;20.85;99.15
4398;BME280;2213;49.720;7.296;2023-05-09T12:16:56;97661.22;;;20.90;97.49
4398;BME280;2213;49.720;7.296;2023-05-09T12:19:27;97655.16;;;20.99;98.83
4398;BME280;2213;49.720;7.296;2023-05-09T12:21:56;97644.78;;;21.03;96.99
4398;BME280;2213;49.720;7.296;2023-05-09T12:24:25;97642.66;;;21.05;96.97
4398;BME280;2213;49.720;7.296;2023-05-09T12:26:58;97641.03;;;21.04;96.47
4398;BME280;2213;49.720;7.296;2023-05-09T12:29:27;97637.34;;;21.05;95.92
4398;BME280;2213;49.720;7.296;2023-05-09T12:31:58;97636.84;;;21.13;96.03
4398;BME280;2213;49.720;7.296;2023-05-09T12:34:27;97630.47;;;21.19;95.86
4398;BME280;2213;49.720;7.296;2023-05-09T12:36:57;97629.13;;;21.22;93.20
4398;BME280;2213;49.720;7.296;2023-05-09T12:39:30;97621.97;;;21.22;92.12
4398;BME280;2213;49.720;7.296;2023-05-09T12:42:01;97623.56;;;21.23;92.93
4398;BME280;2213;49.720;7.296;2023-05-09T12:44:29;97611.59;;;21.26;94.11
4398;BME280;2213;49.720;7.296;2023-05-09T12:47:01;97606.53;;;21.29;94.13
4398;BME280;2213;49.720;7.296;2023-05-09T12:49:31;97604.13;;;21.28;93.75
4398;BME280;2213;49.720;7.296;2023-05-09T12:52:01;97596.97;;;21.33;94.59
4398;BME280;2213;49.720;7.296;2023-05-09T12:54:31;97597.47;;;21.35;94.14
4398;BME280;2213;49.720;7.296;2023-05-09T12:57:01;97601.75;;;21.36;91.52
4398;BME280;2213;49.720;7.296;2023-05-09T12:59:31;97589.22;;;21.42;92.31
4398;BME280;2213;49.720;7.296;2023-05-09T13:02:00;97586.84;;;21.35;90.71
4398;BME280;2213;49.720;7.296;2023-05-09T13:04:29;97594.84;;;21.10;88.89
4398;BME280;2213;49.720;7.296;2023-05-09T13:06:57;97586.31;;;21.13;91.10
4398;BME280;2213;49.720;7.296;2023-05-09T13:09:27;97590.53;;;21.09;91.66
4398;BME280;2213;49.720;7.296;2023-05-09T13:11:56;97583.63;;;21.08;92.43
4398;BME280;2213;49.720;7.296;2023-05-09T13:14:27;97579.41;;;21.12;92.70
4398;BME280;2213;49.720;7.296;2023-05-09T13:16:57;97578.59;;;21.12;92.57
4398;BME280;2213;49.720;7.296;2023-05-09T13:19:26;97576.75;;;21.17;93.42
4398;BME280;2213;49.720;7.296;2023-05-09T13:21:55;97572.50;;;21.16;93.64
4398;BME280;2213;49.720;7.296;2023-05-09T13:24:23;97565.03;;;21.18;94.22
4398;BME280;2213;49.720;7.296;2023-05-09T13:26:52;97567.44;;;21.20;93.18
4398;BME280;2213;49.720;7.296;2023-05-09T13:29:21;97566.13;;;21.17;90.72
4398;BME280;2213;49.720;7.296;2023-05-09T13:31:51;97571.44;;;21.17;92.41